KGEG/GEG METAR and TAF weather

Enter ICAO airport designator
Station Type Date Time Source
KGEG METAR 2022/06/27 17:53 UTC NOAA

KGEG 271753Z 08007KT 10SM SCT250 25/07 A3009 RMK AO2 SLP173 T02500067 10256 20144 58010


Station Type Date Time Source
KGEG Decoded METAR 2022/06/27 17:53 UTC NOAA

SPOKANE INTERNATIONAL AIRPORT , WA, United States (KGEG) 47-37N 117-32W 735M
Jun 27, 2022 - 01:53 PM EDT / 2022.06.27 1753 UTC
Wind: from the E (080 degrees) at 8 MPH (7 KT):0
Visibility: 10 mile(s):0
Sky conditions: partly cloudy
Temperature: 77.0 F (25.0 C)
Dew Point: 44.1 F (6.7 C)
Relative Humidity: 30%
Pressure (altimeter): 30.09 in. Hg (1018 hPa)
Pressure tendency: 0.03 inches (1.0 hPa) lower than three hours ago
ob: KGEG 271753Z 08007KT 10SM SCT250 25/07 A3009 RMK AO2 SLP173 T02500067 10256 20144 58010
cycle: 18

Station Type Date Time Source
KGEG TAF 2022/06/27 18:24 UTC NOAA

TAF KGEG 271721Z 2718/2818 06007KT P6SM FEW250
FM280900 15005KT P6SM SCT250
FM281400 19011KT P6SM BKN250
FM281600 20010G20KT P6SM BKN250

Example: see airport list